sensor_id;sensor_type;location;lat;lon;timestamp;temperature;humidity
9486;DHT22;4781;48.776;9.200;2023-07-13T16:07:25;20.30;99.90
9486;DHT22;4781;48.776;9.200;2023-07-13T16:10:38;27.20;65.20
9486;DHT22;4781;48.776;9.200;2023-07-13T16:18:08;27.20;79.50
9486;DHT22;4781;48.776;9.200;2023-07-13T16:24:23;27.60;68.90
9486;DHT22;4781;48.776;9.200;2023-07-13T16:26:53;27.40;66.60
9486;DHT22;4781;48.776;9.200;2023-07-13T16:29:39;27.10;66.40
9486;DHT22;4781;48.776;9.200;2023-07-13T16:33:53;26.60;67.30
9486;DHT22;4781;48.776;9.200;2023-07-13T16:36:56;26.40;66.40
9486;DHT22;4781;48.776;9.200;2023-07-13T16:39:25;26.20;67.30
9486;DHT22;4781;48.776;9.200;2023-07-13T16:43:22;26.30;68.40
9486;DHT22;4781;48.776;9.200;2023-07-13T16:45:51;26.10;66.30
9486;DHT22;4781;48.776;9.200;2023-07-13T16:48:21;26.30;67.30
9486;DHT22;4781;48.776;9.200;2023-07-13T16:50:55;26.20;67.20
9486;DHT22;4781;48.776;9.200;2023-07-13T16:53:28;26.20;67.70
9486;DHT22;4781;48.776;9.200;2023-07-13T16:55:59;26.00;67.40
9486;DHT22;4781;48.776;9.200;2023-07-13T16:58:31;25.90;67.30
9486;DHT22;4781;48.776;9.200;2023-07-13T17:01:01;25.90;67.90
9486;DHT22;4781;48.776;9.200;2023-07-13T17:03:31;25.80;68.00
9486;DHT22;4781;48.776;9.200;2023-07-13T17:06:04;25.70;68.20
9486;DHT22;4781;48.776;9.200;2023-07-13T17:08:38;25.70;68.40
9486;DHT22;4781;48.776;9.200;2023-07-13T17:11:07;25.70;68.90
9486;DHT22;4781;48.776;9.200;2023-07-13T17:13:35;25.60;67.80
9486;DHT22;4781;48.776;9.200;2023-07-13T17:16:08;25.50;68.50
9486;DHT22;4781;48.776;9.200;2023-07-13T17:18:36;25.50;68.40
9486;DHT22;4781;48.776;9.200;2023-07-13T17:21:07;25.50;68.30
9486;DHT22;4781;48.776;9.200;2023-07-13T17:23:37;25.30;68.40
9486;DHT22;4781;48.776;9.200;2023-07-13T17:26:06;25.30;68.90
9486;DHT22;4781;48.776;9.200;2023-07-13T17:28:36;25.30;68.50
9486;DHT22;4781;48.776;9.200;2023-07-13T17:31:06;25.20;69.40
9486;DHT22;4781;48.776;9.200;2023-07-13T17:33:39;25.20;68.90
9486;DHT22;4781;48.776;9.200;2023-07-13T17:36:14;25.10;69.10
9486;DHT22;4781;48.776;9.200;2023-07-13T17:38:45;25.00;69.10
9486;DHT22;4781;48.776;9.200;2023-07-13T17:41:17;24.90;69.50
9486;DHT22;4781;48.776;9.200;2023-07-13T17:43:46;25.00;69.20
9486;DHT22;4781;48.776;9.200;2023-07-13T17:46:29;24.90;69.70
9486;DHT22;4781;48.776;9.200;2023-07-13T17:48:58;24.80;69.20
9486;DHT22;4781;48.776;9.200;2023-07-13T17:51:27;24.70;69.20
9486;DHT22;4781;48.776;9.200;2023-07-13T17:53:55;24.70;69.50
9486;DHT22;4781;48.776;9.200;2023-07-13T17:56:24;24.70;70.10
9486;DHT22;4781;48.776;9.200;2023-07-13T17:58:53;24.70;69.70
9486;DHT22;4781;48.776;9.200;2023-07-13T18:01:22;24.70;69.90
9486;DHT22;4781;48.776;9.200;2023-07-13T18:03:52;24.60;69.90
9486;DHT22;4781;48.776;9.200;2023-07-13T18:06:34;24.50;70.10
9486;DHT22;4781;48.776;9.200;2023-07-13T18:09:15;24.50;70.80
9486;DHT22;4781;48.776;9.200;2023-07-13T18:11:45;24.40;70.90
9486;DHT22;4781;48.776;9.200;2023-07-13T18:14:14;24.40;70.10
9486;DHT22;4781;48.776;9.200;2023-07-13T18:16:54;24.40;70.10
9486;DHT22;4781;48.776;9.200;2023-07-13T18:19:30;24.40;70.50
9486;DHT22;4781;48.776;9.200;2023-07-13T18:22:00;24.40;70.70
9486;DHT22;4781;48.776;9.200;2023-07-13T18:24:30;24.30;70.80
9486;DHT22;4781;48.776;9.200;2023-07-13T18:26:58;24.30;71.40
9486;DHT22;4781;48.776;9.200;2023-07-13T18:29:26;24.20;71.50
9486;DHT22;4781;48.776;9.200;2023-07-13T18:31:55;24.20;71.70
9486;DHT22;4781;48.776;9.200;2023-07-13T18:34:24;24.10;72.60
9486;DHT22;4781;48.776;9.200;2023-07-13T18:36:53;24.00;72.30
9486;DHT22;4781;48.776;9.200;2023-07-13T18:39:22;24.00;72.30
9486;DHT22;4781;48.776;9.200;2023-07-13T18:41:51;23.90;72.30
9486;DHT22;4781;48.776;9.200;2023-07-13T18:44:19;23.80;72.00
9486;DHT22;4781;48.776;9.200;2023-07-13T18:46:48;23.90;73.00
9486;DHT22;4781;48.776;9.200;2023-07-13T18:49:16;24.00;72.20
9486;DHT22;4781;48.776;9.200;2023-07-13T18:51:44;23.90;72.90
9486;DHT22;4781;48.776;9.200;2023-07-13T18:54:14;23.80;73.50
9486;DHT22;4781;48.776;9.200;2023-07-13T18:56:43;23.70;74.60
9486;DHT22;4781;48.776;9.200;2023-07-13T18:59:11;23.70;73.70
9486;DHT22;4781;48.776;9.200;2023-07-13T19:01:41;23.60;74.50
9486;DHT22;4781;48.776;9.200;2023-07-13T19:04:30;23.50;73.80
9486;DHT22;4781;48.776;9.200;2023-07-13T19:06:59;23.40;75.20
9486;DHT22;4781;48.776;9.200;2023-07-13T19:09:27;23.30;75.30
9486;DHT22;4781;48.776;9.200;2023-07-13T19:11:56;23.20;74.70
9486;DHT22;4781;48.776;9.200;2023-07-13T19:14:24;23.20;75.20
9486;DHT22;4781;48.776;9.200;2023-07-13T19:16:53;23.10;76.20
9486;DHT22;4781;48.776;9.200;2023-07-13T19:19:23;23.00;75.80
9486;DHT22;4781;48.776;9.200;2023-07-13T19:21:53;23.00;75.50
9486;DHT22;4781;48.776;9.200;2023-07-13T19:24:25;23.00;76.30
9486;DHT22;4781;48.776;9.200;2023-07-13T19:26:53;22.90;77.60
9486;DHT22;4781;48.776;9.200;2023-07-13T19:29:25;22.90;77.40
9486;DHT22;4781;48.776;9.200;2023-07-13T19:31:55;22.80;77.50
9486;DHT22;4781;48.776;9.200;2023-07-13T19:34:25;22.80;77.70
9486;DHT22;4781;48.776;9.200;2023-07-13T19:37:02;22.80;79.80
9486;DHT22;4781;48.776;9.200;2023-07-13T19:39:37;22.70;79.60
9486;DHT22;4781;48.776;9.200;2023-07-13T19:42:19;22.70;80.30
9486;DHT22;4781;48.776;9.200;2023-07-13T19:44:49;22.60;78.80
9486;DHT22;4781;48.776;9.200;2023-07-13T19:47:19;22.60;80.60
9486;DHT22;4781;48.776;9.200;2023-07-13T19:49:48;22.50;80.40
9486;DHT22;4781;48.776;9.200;2023-07-13T19:52:19;22.40;79.60
9486;DHT22;4781;48.776;9.200;2023-07-13T19:54:52;22.40;78.90
9486;DHT22;4781;48.776;9.200;2023-07-13T19:57:24;22.40;79.10
9486;DHT22;4781;48.776;9.200;2023-07-13T19:59:54;22.20;78.70
9486;DHT22;4781;48.776;9.200;2023-07-13T20:02:25;22.20;80.30
9486;DHT22;4781;48.776;9.200;2023-07-13T20:04:54;22.20;80.40
9486;DHT22;4781;48.776;9.200;2023-07-13T20:07:23;22.20;80.30
9486;DHT22;4781;48.776;9.200;2023-07-13T20:09:53;22.10;79.90
9486;DHT22;4781;48.776;9.200;2023-07-13T20:12:24;22.10;80.20
9486;DHT22;4781;48.776;9.200;2023-07-13T20:14:54;22.10;80.10
9486;DHT22;4781;48.776;9.200;2023-07-13T20:17:35;22.00;80.10
9486;DHT22;4781;48.776;9.200;2023-07-13T20:20:19;21.90;80.90
9486;DHT22;4781;48.776;9.200;2023-07-13T20:22:55;21.80;81.30
9486;DHT22;4781;48.776;9.200;2023-07-13T20:25:26;21.80;81.00
9486;DHT22;4781;48.776;9.200;2023-07-13T20:27:57;21.80;81.50
9486;DHT22;4781;48.776;9.200;2023-07-13T20:30:35;21.80;81.10
9486;DHT22;4781;48.776;9.200;2023-07-13T20:33:13;21.80;81.00
9486;DHT22;4781;48.776;9.200;2023-07-13T20:35:38;21.70;81.20
9486;DHT22;4781;48.776;9.200;2023-07-13T20:38:11;21.70;81.30
9486;DHT22;4781;48.776;9.200;2023-07-13T20:40:40;21.70;81.60
9486;DHT22;4781;48.776;9.200;2023-07-13T20:43:09;21.70;81.10
9486;DHT22;4781;48.776;9.200;2023-07-13T20:45:39;21.60;81.40
9486;DHT22;4781;48.776;9.200;2023-07-13T20:48:25;21.60;82.00
9486;DHT22;4781;48.776;9.200;2023-07-13T20:50:56;21.50;82.00
9486;DHT22;4781;48.776;9.200;2023-07-13T20:53:26;21.50;81.60
9486;DHT22;4781;48.776;9.200;2023-07-13T20:55:56;21.40;82.20
9486;DHT22;4781;48.776;9.200;2023-07-13T20:58:24;21.40;82.10
9486;DHT22;4781;48.776;9.200;2023-07-13T21:00:53;21.40;81.80
9486;DHT22;4781;48.776;9.200;2023-07-13T21:03:24;21.40;81.40
9486;DHT22;4781;48.776;9.200;2023-07-13T21:05:55;21.30;82.30
9486;DHT22;4781;48.776;9.200;2023-07-13T21:08:25;21.30;81.90
9486;DHT22;4781;48.776;9.200;2023-07-13T21:10:53;21.30;82.60
9486;DHT22;4781;48.776;9.200;2023-07-13T21:13:22;21.20;82.50
9486;DHT22;4781;48.776;9.200;2023-07-13T21:15:50;21.20;82.50
9486;DHT22;4781;48.776;9.200;2023-07-13T21:18:22;21.20;82.40
9486;DHT22;4781;48.776;9.200;2023-07-13T21:20:54;21.20;81.80
9486;DHT22;4781;48.776;9.200;2023-07-13T21:23:31;21.20;81.70
9486;DHT22;4781;48.776;9.200;2023-07-13T21:26:03;21.20;81.80
9486;DHT22;4781;48.776;9.200;2023-07-13T21:28:38;21.10;81.80
9486;DHT22;4781;48.776;9.200;2023-07-13T21:34:13;21.10;82.00
9486;DHT22;4781;48.776;9.200;2023-07-13T21:36:37;21.00;82.10
9486;DHT22;4781;48.776;9.200;2023-07-13T21:39:06;21.00;82.30
9486;DHT22;4781;48.776;9.200;2023-07-13T21:41:37;21.00;83.40
9486;DHT22;4781;48.776;9.200;2023-07-13T21:44:29;20.90;82.80
9486;DHT22;4781;48.776;9.200;2023-07-13T21:46:58;20.90;82.70
9486;DHT22;4781;48.776;9.200;2023-07-13T21:49:27;20.90;82.70
9486;DHT22;4781;48.776;9.200;2023-07-13T21:51:55;20.80;82.90
9486;DHT22;4781;48.776;9.200;2023-07-13T21:54:24;20.80;83.20
9486;DHT22;4781;48.776;9.200;2023-07-13T21:56:52;20.80;83.20
9486;DHT22;4781;48.776;9.200;2023-07-13T21:59:26;20.70;83.20
9486;DHT22;4781;48.776;9.200;2023-07-13T22:01:55;20.70;83.00
9486;DHT22;4781;48.776;9.200;2023-07-13T22:04:26;20.60;83.40
9486;DHT22;4781;48.776;9.200;2023-07-13T22:06:55;20.50;83.30
9486;DHT22;4781;48.776;9.200;2023-07-13T22:09:26;20.50;83.70
9486;DHT22;4781;48.776;9.200;2023-07-13T22:11:54;20.40;83.60
9486;DHT22;4781;48.776;9.200;2023-07-13T22:14:23;20.40;83.80
9486;DHT22;4781;48.776;9.200;2023-07-13T22:16:52;20.40;83.30
9486;DHT22;4781;48.776;9.200;2023-07-13T22:19:23;20.40;83.20
9486;DHT22;4781;48.776;9.200;2023-07-13T22:21:53;20.40;83.10
9486;DHT22;4781;48.776;9.200;2023-07-13T22:24:21;20.40;83.30
9486;DHT22;4781;48.776;9.200;2023-07-13T22:26:51;20.30;83.90
9486;DHT22;4781;48.776;9.200;2023-07-13T22:29:24;20.30;84.70
9486;DHT22;4781;48.776;9.200;2023-07-13T22:31:54;20.20;85.30
9486;DHT22;4781;48.776;9.200;2023-07-13T22:34:23;20.10;84.70
9486;DHT22;4781;48.776;9.200;2023-07-13T22:36:51;20.10;84.50
9486;DHT22;4781;48.776;9.200;2023-07-13T22:39:25;20.10;84.40
9486;DHT22;4781;48.776;9.200;2023-07-13T22:41:54;20.10;84.30
9486;DHT22;4781;48.776;9.200;2023-07-13T22:44:24;20.10;84.30
9486;DHT22;4781;48.776;9.200;2023-07-13T22:46:54;20.10;84.20
9486;DHT22;4781;48.776;9.200;2023-07-13T22:49:28;20.10;84.00
9486;DHT22;4781;48.776;9.200;2023-07-13T22:52:02;20.00;84.40
9486;DHT22;4781;48.776;9.200;2023-07-13T22:54:31;19.90;84.40
9486;DHT22;4781;48.776;9.200;2023-07-13T22:56:59;19.80;84.30
9486;DHT22;4781;48.776;9.200;2023-07-13T22:59:27;19.80;84.60
9486;DHT22;4781;48.776;9.200;2023-07-13T23:01:56;19.70;84.50
9486;DHT22;4781;48.776;9.200;2023-07-13T23:04:33;19.70;84.60
9486;DHT22;4781;48.776;9.200;2023-07-13T23:07:06;19.70;84.80
9486;DHT22;4781;48.776;9.200;2023-07-13T23:09:36;19.70;84.80
9486;DHT22;4781;48.776;9.200;2023-07-13T23:12:07;19.60;84.70
9486;DHT22;4781;48.776;9.200;2023-07-13T23:14:36;19.60;84.90
9486;DHT22;4781;48.776;9.200;2023-07-13T23:17:09;19.60;85.00
9486;DHT22;4781;48.776;9.200;2023-07-13T23:19:39;19.50;85.00
9486;DHT22;4781;48.776;9.200;2023-07-13T23:22:16;19.50;85.20
9486;DHT22;4781;48.776;9.200;2023-07-13T23:24:41;19.40;85.40
9486;DHT22;4781;48.776;9.200;2023-07-13T23:27:09;19.40;85.50
9486;DHT22;4781;48.776;9.200;2023-07-13T23:29:38;19.30;86.30
9486;DHT22;4781;48.776;9.200;2023-07-13T23:32:13;19.30;86.80
9486;DHT22;4781;48.776;9.200;2023-07-13T23:34:38;19.30;86.50
9486;DHT22;4781;48.776;9.200;2023-07-13T23:37:16;19.30;86.60
9486;DHT22;4781;48.776;9.200;2023-07-13T23:39:45;19.30;86.70
9486;DHT22;4781;48.776;9.200;2023-07-13T23:42:13;19.20;86.90
9486;DHT22;4781;48.776;9.200;2023-07-13T23:44:41;19.20;87.00
9486;DHT22;4781;48.776;9.200;2023-07-13T23:47:10;19.10;86.50
9486;DHT22;4781;48.776;9.200;2023-07-13T23:49:38;19.00;87.00
9486;DHT22;4781;48.776;9.200;2023-07-13T23:52:09;19.00;87.60
9486;DHT22;4781;48.776;9.200;2023-07-13T23:54:39;18.90;88.30
9486;DHT22;4781;48.776;9.200;2023-07-13T23:57:08;18.90;87.90
9486;DHT22;4781;48.776;9.200;2023-07-13T23:59:37;19.00;88.20
